createdAt,value
2022-11-01T00:01:18.803Z,4.22
2022-11-01T00:06:20.856Z,3.90
2022-11-01T00:11:22.791Z,4.00
2022-11-01T00:16:25.089Z,4.03
2022-11-01T00:21:26.866Z,4.35
2022-11-01T00:26:29.091Z,4.60
2022-11-01T00:31:32.364Z,3.65
2022-11-01T00:36:35.901Z,3.97
2022-11-01T00:41:37.797Z,4.70
2022-11-01T00:46:39.693Z,3.45
2022-11-01T00:51:41.614Z,4.10
2022-11-01T00:56:43.367Z,4.07
2022-11-01T01:01:45.243Z,3.33
2022-11-01T01:06:47.254Z,3.42
2022-11-01T01:11:49.216Z,3.42
2022-11-01T01:16:51.092Z,3.67
2022-11-01T01:21:53.859Z,3.30
2022-11-01T01:26:55.657Z,3.05
2022-11-01T01:31:57.612Z,2.45
2022-11-01T01:36:59.511Z,2.20
2022-11-01T01:42:05.145Z,2.40
2022-11-01T01:47:07.708Z,2.40
2022-11-01T01:52:10.209Z,2.47
2022-11-01T01:57:12.703Z,1.95
2022-11-01T02:02:14.554Z,1.98
2022-11-01T02:07:16.533Z,2.38
2022-11-01T02:12:18.964Z,1.60
2022-11-01T02:17:33.524Z,1.58
2022-11-01T02:22:41.447Z,1.80
2022-11-01T02:28:22.247Z,2.22
2022-11-01T02:33:32.387Z,1.48
2022-11-01T02:38:38.765Z,1.20
2022-11-01T02:44:02.769Z,1.30
2022-11-01T02:49:05.437Z,0.60
2022-11-01T02:54:08.414Z,0.85
2022-11-01T02:59:19.709Z,0.63
2022-11-01T03:04:21.501Z,0.60
2022-11-01T03:09:23.780Z,1.05
2022-11-01T03:15:04.733Z,0.98
2022-11-01T03:20:21.198Z,0.70
2022-11-01T03:25:40.763Z,1.25
2022-11-01T03:30:47.992Z,0.60
2022-11-01T03:35:53.101Z,0.60
2022-11-01T03:41:00.463Z,0.75
2022-11-01T03:46:02.327Z,1.00
2022-11-01T03:51:04.138Z,0.50
2022-11-01T03:56:06.130Z,0.80
2022-11-01T04:01:09.827Z,1.02
2022-11-01T04:06:11.842Z,0.85
2022-11-01T04:11:13.599Z,0.75
2022-11-01T04:16:33.798Z,0.60
2022-11-01T04:21:35.590Z,0.70
2022-11-01T04:26:37.743Z,0.70
2022-11-01T04:31:39.495Z,0.80
2022-11-01T04:36:41.277Z,0.70
2022-11-01T04:41:43.036Z,1.17
2022-11-01T04:46:44.850Z,0.77
2022-11-01T04:51:46.782Z,0.60
2022-11-01T04:56:48.668Z,0.80
2022-11-01T05:01:50.489Z,1.03
2022-11-01T05:06:52.504Z,0.97
2022-11-01T05:11:54.316Z,0.90
2022-11-01T05:16:56.747Z,0.90
2022-11-01T05:21:59.736Z,0.80
2022-11-01T05:27:01.943Z,0.70
2022-11-01T05:32:04.103Z,0.90
2022-11-01T05:37:06.020Z,0.67
2022-11-01T05:42:07.915Z,0.70
2022-11-01T05:47:12.220Z,0.80
2022-11-01T05:52:18.138Z,1.30
2022-11-01T05:57:20.047Z,1.50
2022-11-01T06:02:22.103Z,1.30
2022-11-01T06:07:26.269Z,1.80
2022-11-01T06:12:28.194Z,1.50
2022-11-01T06:17:30.234Z,1.10
2022-11-01T06:22:34.382Z,1.50
2022-11-01T06:27:36.143Z,1.27
2022-11-01T06:32:38.070Z,1.27
2022-11-01T06:37:39.999Z,1.27
2022-11-01T06:42:46.483Z,1.23
2022-11-01T06:47:48.771Z,1.90
2022-11-01T06:52:50.955Z,1.70
2022-11-01T06:57:57.341Z,1.40
2022-11-01T07:03:01.476Z,1.53
2022-11-01T07:08:05.030Z,1.27
2022-11-01T07:13:09.111Z,1.77
2022-11-01T07:18:11.021Z,1.57
2022-11-01T07:23:15.521Z,1.40
2022-11-01T07:28:17.310Z,2.00
2022-11-01T07:33:19.283Z,1.60
2022-11-01T07:38:21.346Z,1.37
2022-11-01T07:43:23.468Z,1.23
2022-11-01T07:48:25.211Z,1.50
2022-11-01T07:53:27.115Z,1.67
2022-11-01T07:58:29.479Z,1.47
2022-11-01T08:03:31.476Z,1.43
2022-11-01T08:08:33.261Z,1.20
2022-11-01T08:13:35.081Z,1.07
2022-11-01T08:18:36.971Z,1.60
2022-11-01T08:23:38.863Z,1.50
2022-11-01T08:28:41.023Z,1.40
2022-11-01T08:33:42.950Z,1.45
2022-11-01T08:38:44.695Z,1.70
2022-11-01T08:43:46.634Z,1.65
2022-11-01T08:48:48.583Z,1.45
2022-11-01T08:53:50.491Z,1.73
2022-11-01T08:58:52.863Z,1.60
2022-11-01T09:04:01.239Z,1.42
2022-11-01T09:09:04.387Z,2.38
2022-11-01T09:14:06.279Z,1.50
2022-11-01T09:19:08.261Z,1.90
2022-11-01T09:24:15.368Z,1.83
2022-11-01T09:29:18.907Z,1.80
2022-11-01T09:34:21.592Z,2.33
2022-11-01T09:39:23.986Z,1.98
2022-11-01T09:44:33.888Z,1.60
2022-11-01T09:49:39.081Z,2.20
2022-11-01T09:54:40.969Z,2.10
2022-11-01T09:59:58.050Z,1.80
2022-11-01T10:05:06.000Z,1.67
2022-11-01T10:10:38.830Z,1.67
2022-11-01T10:15:56.479Z,2.58
2022-11-01T10:21:02.167Z,1.80
2022-11-01T10:26:05.678Z,1.45
2022-11-01T10:31:14.868Z,1.58
2022-11-01T10:36:25.758Z,1.40
2022-11-01T10:41:41.015Z,1.42
2022-11-01T10:46:46.591Z,1.42
2022-11-01T10:51:51.875Z,1.63
2022-11-01T10:56:57.588Z,1.55
2022-11-01T11:02:02.077Z,1.98
2022-11-01T11:07:13.145Z,1.65
2022-11-01T11:12:19.813Z,1.33
2022-11-01T11:17:37.431Z,1.58
2022-11-01T11:22:41.976Z,1.40
2022-11-01T11:27:47.642Z,1.55
2022-11-01T11:32:50.190Z,2.55
2022-11-01T11:38:05.484Z,1.30
2022-11-01T11:43:34.277Z,1.25
2022-11-01T11:48:53.132Z,1.60
2022-11-01T11:54:13.819Z,1.50
2022-11-01T11:59:26.050Z,1.50
2022-11-01T12:04:39.276Z,2.15
2022-11-01T12:09:47.836Z,1.65
2022-11-01T12:14:50.401Z,1.20
2022-11-01T12:20:22.779Z,1.00
2022-11-01T12:25:25.063Z,1.60
2022-11-01T12:30:31.042Z,2.00
2022-11-01T12:35:37.837Z,1.20
2022-11-01T12:40:43.309Z,2.50
2022-11-01T12:45:57.128Z,1.95
2022-11-01T12:51:12.090Z,1.38
2022-11-01T12:56:14.107Z,1.45
2022-11-01T13:01:47.323Z,2.05
2022-11-01T13:07:00.724Z,1.60
2022-11-01T13:12:27.182Z,1.70
2022-11-01T13:17:50.363Z,1.55
2022-11-01T13:23:17.027Z,1.30
2022-11-01T13:28:30.543Z,1.73
2022-11-01T13:33:47.419Z,2.30
2022-11-01T13:39:11.043Z,1.95
2022-11-01T13:44:20.803Z,1.42
2022-11-01T13:49:44.829Z,1.45
2022-11-01T13:55:17.065Z,1.65
2022-11-01T14:00:37.831Z,1.80
2022-11-01T14:05:39.826Z,1.77
2022-11-01T14:10:46.727Z,1.52
2022-11-01T14:15:54.847Z,1.80
2022-11-01T14:20:57.297Z,1.50
2022-11-01T14:26:18.198Z,1.67
2022-11-01T14:31:23.903Z,1.58
2022-11-01T14:36:29.169Z,1.92
2022-11-01T14:41:37.023Z,1.60
2022-11-01T14:46:46.598Z,1.80
2022-11-01T14:52:04.448Z,1.83
2022-11-01T14:57:20.526Z,1.52
2022-11-01T15:02:25.453Z,1.85
2022-11-01T15:07:40.248Z,1.92
2022-11-01T15:13:04.230Z,1.38
2022-11-01T15:18:14.382Z,1.67
2022-11-01T15:23:26.765Z,1.90
2022-11-01T15:28:37.230Z,2.00
2022-11-01T15:33:39.230Z,1.75
2022-11-01T15:39:01.683Z,1.90
2022-11-01T15:44:08.489Z,2.42
2022-11-01T15:49:34.064Z,1.70
2022-11-01T15:55:03.873Z,1.50
2022-11-01T16:00:17.758Z,1.50
2022-11-01T16:05:24.512Z,1.52
2022-11-01T16:10:29.601Z,1.55
2022-11-01T16:15:33.828Z,1.40
2022-11-01T16:20:38.702Z,1.60
2022-11-01T16:25:40.598Z,1.50
2022-11-01T16:30:48.087Z,1.30
2022-11-01T16:36:01.804Z,1.30
2022-11-01T16:41:16.186Z,1.40
2022-11-01T16:46:19.624Z,1.65
2022-11-01T16:51:25.175Z,1.23
2022-11-01T16:56:36.992Z,2.20
2022-11-01T17:01:40.192Z,1.42
2022-11-01T17:06:42.066Z,1.63
2022-11-01T17:11:50.828Z,1.90
2022-11-01T17:16:53.336Z,1.50
2022-11-01T17:21:55.626Z,1.92
2022-11-01T17:27:00.497Z,2.08
2022-11-01T17:32:04.109Z,2.10
2022-11-01T17:37:06.441Z,1.37
2022-11-01T17:42:09.372Z,1.90
2022-11-01T17:47:14.988Z,1.48
2022-11-01T17:52:17.621Z,1.93
2022-11-01T17:57:19.488Z,1.65
2022-11-01T18:02:21.488Z,1.63
2022-11-01T18:07:23.876Z,1.83
2022-11-01T18:12:37.551Z,1.73
2022-11-01T18:17:55.287Z,1.88
2022-11-01T18:23:01.827Z,1.70
2022-11-01T18:28:32.232Z,2.53
2022-11-01T18:33:55.812Z,1.37
2022-11-01T18:39:06.168Z,1.80
2022-11-01T18:44:12.717Z,1.25
2022-11-01T18:49:14.458Z,2.00
2022-11-01T18:54:26.003Z,1.67
2022-11-01T18:59:34.091Z,1.50
2022-11-01T19:04:37.435Z,1.50
2022-11-01T19:10:02.616Z,2.38
2022-11-01T19:15:18.939Z,1.10
2022-11-01T19:20:27.821Z,3.10
2022-11-01T19:25:36.006Z,1.80
2022-11-01T19:30:38.087Z,1.60
2022-11-01T19:35:41.296Z,1.85
2022-11-01T19:40:44.071Z,1.58
2022-11-01T19:45:50.321Z,2.27
2022-11-01T19:50:52.737Z,1.60
2022-11-01T19:56:10.960Z,1.90
2022-11-01T20:01:43.268Z,1.90
2022-11-01T20:07:15.816Z,2.13
2022-11-01T20:12:22.050Z,1.90
2022-11-01T20:17:24.120Z,1.40
2022-11-01T20:22:27.394Z,1.75
2022-11-01T20:27:29.495Z,1.40
2022-11-01T20:32:31.466Z,1.35
2022-11-01T20:37:33.323Z,1.58
2022-11-01T20:42:35.124Z,1.83
2022-11-01T20:47:37.154Z,1.80
2022-11-01T20:52:40.178Z,1.83
2022-11-01T20:57:42.707Z,2.00
2022-11-01T21:02:45.844Z,1.43
2022-11-01T21:07:48.457Z,2.03
2022-11-01T21:12:50.794Z,1.98
2022-11-01T21:17:57.798Z,2.40
2022-11-01T21:23:02.539Z,2.00
2022-11-01T21:28:32.490Z,1.80
2022-11-01T21:33:36.510Z,1.90
2022-11-01T21:38:41.356Z,2.13
2022-11-01T21:43:44.048Z,1.40
2022-11-01T21:48:46.277Z,2.10
2022-11-01T21:53:48.193Z,1.43
2022-11-01T21:58:50.074Z,1.67
2022-11-01T22:03:51.808Z,1.60
2022-11-01T22:08:53.622Z,1.50
2022-11-01T22:13:55.390Z,1.87
2022-11-01T22:18:57.338Z,1.67
2022-11-01T22:24:00.252Z,1.67
2022-11-01T22:29:02.044Z,1.90
2022-11-01T22:34:03.956Z,1.60
2022-11-01T22:39:23.590Z,1.67
2022-11-01T22:44:27.581Z,2.20
2022-11-01T22:49:35.819Z,1.63
2022-11-01T22:54:43.825Z,1.63
2022-11-01T22:59:47.119Z,1.20
2022-11-01T23:04:49.682Z,1.80
2022-11-01T23:09:53.672Z,1.40
2022-11-01T23:14:55.511Z,1.37
2022-11-01T23:20:00.266Z,1.90
2022-11-01T23:25:03.919Z,1.47
2022-11-01T23:30:06.072Z,1.70
2022-11-01T23:35:19.089Z,2.10
2022-11-01T23:40:22.256Z,1.63
2022-11-01T23:45:35.984Z,1.47
2022-11-01T23:50:37.908Z,1.83
2022-11-01T23:55:52.373Z,1.37
